Time;durP1;ratioP1;P1;durP2;ratioP2;P2;SDS_P1;SDS_P2;PMS_P1;PMS_P2;Temp;Humidity;BMP_temperature;BMP_pressure;BME280_temperature;BME280_humidity;BME280_pressure;Samples;Min_cycle;Max_cycle;Signal;HPM_P1;HPM_P2
2023/05/04 09:32:58;;;;;;;10.85;4.85;;;21.70;72.60;;;;;;7413870;19;20018;-78
2023/05/04 09:35:32;;;;;;;9.65;5.13;;;21.70;72.70;;;;;;7409341;19;20018;-78
2023/05/04 09:38:04;;;;;;;7.68;4.95;;;21.70;72.70;;;;;;7386831;19;20397;-78
2023/05/04 09:40:33;;;;;;;7.43;4.53;;;21.80;72.90;;;;;;7390707;19;20014;-77
2023/05/04 09:43:02;;;;;;;11.27;5.00;;;21.80;72.70;;;;;;7396448;19;20007;-77
2023/05/04 09:45:40;;;;;;;23.30;5.30;;;21.80;72.80;;;;;;7387227;19;20003;-79
2023/05/04 11:08:38;;;;;;;;;;;;;;;;;;;;;
2023/05/04 12:10:07;;;;;;;4.03;3.10;;;23.40;67.40;;;;;;6419511;19;3160503;-84
2023/05/04 12:38:49;;;;;;;11.97;3.13;;;24.30;63.60;;;;;;1578220;19;3192012;-80
2023/05/04 12:41:18;;;;;;;7.70;3.80;;;24.30;63.20;;;;;;7440883;19;20631;-78
2023/05/04 12:43:48;;;;;;;8.27;3.10;;;24.40;63.20;;;;;;7417346;19;20006;-78
2023/05/04 12:46:20;;;;;;;6.78;3.55;;;24.40;62.60;;;;;;7418174;19;20006;-78
2023/05/04 12:48:49;;;;;;;6.18;3.65;;;24.40;62.60;;;;;;7416518;19;20227;-77
2023/05/04 12:51:18;;;;;;;5.57;3.45;;;24.40;63.20;;;;;;7414165;19;20007;-77
2023/05/04 12:53:51;;;;;;;5.47;3.40;;;24.40;63.80;;;;;;7415436;19;20006;-80
2023/05/04 12:56:20;;;;;;;5.40;3.50;;;24.50;64.10;;;;;;7440453;19;20040;-77
2023/05/04 12:58:49;;;;;;;4.55;3.25;;;24.70;64.70;;;;;;7422083;19;20006;-79
2023/05/04 13:01:22;;;;;;;6.32;3.60;;;24.80;64.60;;;;;;7423209;19;20016;-81
2023/05/04 13:04:15;;;;;;;5.03;3.80;;;24.90;65.00;;;;;;7421945;19;20255;-82
2023/05/04 13:07:23;;;;;;;8.23;3.30;;;24.90;64.00;;;;;;7422507;19;19999;-81
2023/05/04 13:09:54;;;;;;;14.35;3.58;;;24.90;64.20;;;;;;7416203;19;20010;-73
2023/05/04 13:12:23;;;;;;;;;;;24.90;64.50;;;;;;7416657;19;20111;-73
2023/05/04 13:14:54;;;;;;;9.90;3.75;;;24.90;63.90;;;;;;7414952;19;19959;-73
2023/05/04 13:17:22;;;;;;;5.60;3.90;;;24.80;64.60;;;;;;7432553;19;19999;-73
2023/05/04 13:19:51;;;;;;;7.15;3.75;;;24.50;65.60;;;;;;7393383;19;20002;-73
2023/05/04 13:22:20;;;;;;;4.50;3.50;;;24.30;66.60;;;;;;7414208;19;20006;-73
2023/05/04 13:24:48;;;;;;;6.07;4.10;;;24.40;67.00;;;;;;7415490;19;20074;-73
2023/05/04 13:27:20;;;;;;;9.32;4.22;;;24.50;67.90;;;;;;7436597;19;20014;-72
2023/05/04 13:29:48;;;;;;;;;;;24.70;67.60;;;;;;7417135;19;20006;-73
2023/05/04 13:32:17;;;;;;;8.68;4.18;;;24.80;67.90;;;;;;7414877;19;19907;-74
2023/05/04 13:34:48;;;;;;;7.50;3.75;;;24.80;66.90;;;;;;7415072;19;20006;-79
2023/05/04 13:37:17;;;;;;;7.68;3.95;;;24.80;67.00;;;;;;7386965;19;20014;-74
2023/05/04 13:39:46;;;;;;;6.43;3.92;;;24.70;67.30;;;;;;7384778;19;20006;-75
2023/05/04 13:42:15;;;;;;;7.63;3.88;;;24.70;67.60;;;;;;7404443;19;20013;-74
2023/05/04 13:44:47;;;;;;;7.05;3.90;;;24.60;67.70;;;;;;7384374;19;20047;-73
2023/05/04 13:47:16;;;;;;;6.57;3.80;;;24.60;68.30;;;;;;7388531;19;20002;-74
2023/05/04 13:49:47;;;;;;;10.88;3.95;;;24.60;69.30;;;;;;7387655;19;20390;-74
2023/05/04 13:52:16;;;;;;;5.80;3.83;;;24.50;69.40;;;;;;7386486;19;20002;-74
2023/05/04 13:54:47;;;;;;;6.88;3.92;;;24.50;69.80;;;;;;7409785;19;20014;-74
2023/05/04 13:57:16;;;;;;;8.77;4.00;;;24.30;70.40;;;;;;7383581;19;20026;-74
2023/05/04 13:59:47;;;;;;;5.53;3.67;;;24.10;70.80;;;;;;7385764;19;20022;-73
2023/05/04 14:02:15;;;;;;;;;;;24.00;72.10;;;;;;7385883;19;20078;-73
2023/05/04 14:04:44;;;;;;;8.25;3.80;;;24.20;73.00;;;;;;7384928;19;19928;-73
2023/05/04 14:07:13;;;;;;;12.13;4.15;;;24.10;73.10;;;;;;7384602;19;20294;-73
2023/05/04 14:09:41;;;;;;;6.55;3.92;;;24.10;72.90;;;;;;7403788;19;20006;-73
2023/05/04 14:12:10;;;;;;;7.07;3.90;;;24.30;72.00;;;;;;7384220;19;20070;-73
2023/05/04 14:14:39;;;;;;;7.78;3.75;;;24.10;72.70;;;;;;7384560;19;20019;-74
2023/05/04 14:17:10;;;;;;;8.43;3.90;;;24.10;72.90;;;;;;7385363;19;20006;-74
2023/05/04 14:19:39;;;;;;;;;;;24.10;73.10;;;;;;7384109;19;20023;-73
2023/05/04 14:22:07;;;;;;;12.30;3.72;;;24.30;73.50;;;;;;7390382;19;19915;-74
2023/05/04 14:24:36;;;;;;;7.90;4.47;;;24.40;73.30;;;;;;7405516;19;20015;-73
2023/05/04 14:27:05;;;;;;;11.57;3.88;;;24.70;72.60;;;;;;7386720;19;20227;-74
2023/05/04 14:29:33;;;;;;;7.10;3.10;;;24.80;72.20;;;;;;7385634;19;20028;-73
2023/05/04 14:32:03;;;;;;;14.82;3.20;;;25.00;71.20;;;;;;7385160;19;19998;-73
2023/05/04 14:34:34;;;;;;;7.45;3.42;;;25.00;69.10;;;;;;7384537;19;20074;-73
2023/05/04 14:37:04;;;;;;;6.53;3.13;;;24.90;67.80;;;;;;7405932;19;20006;-73
2023/05/04 14:39:32;;;;;;;6.63;3.30;;;24.90;68.60;;;;;;7384117;19;20054;-73
2023/05/04 14:42:02;;;;;;;6.68;3.28;;;24.80;68.80;;;;;;7383980;19;20085;-73
2023/05/04 14:44:30;;;;;;;5.18;3.42;;;24.80;69.20;;;;;;7383845;19;20333;-73
2023/05/04 14:47:01;;;;;;;5.32;3.25;;;24.70;69.90;;;;;;7380456;19;20032;-73
2023/05/04 14:49:29;;;;;;;10.45;3.10;;;24.80;70.10;;;;;;7384031;19;20011;-72
2023/05/04 14:52:01;;;;;;;7.93;3.30;;;24.70;70.40;;;;;;7404995;19;20007;-72
2023/05/04 14:54:30;;;;;;;6.05;3.40;;;24.80;72.00;;;;;;7382629;19;20027;-73
2023/05/04 14:56:58;;;;;;;10.48;3.20;;;24.80;70.50;;;;;;7382474;19;20011;-73
2023/05/04 14:59:27;;;;;;;5.47;2.53;;;24.90;70.70;;;;;;7382901;19;20022;-73
2023/05/04 15:01:56;;;;;;;3.25;2.60;;;24.90;70.00;;;;;;7382872;19;20019;-73
2023/05/04 15:04:25;;;;;;;12.18;2.42;;;24.90;69.20;;;;;;7383722;19;20027;-75
2023/05/04 15:06:54;;;;;;;9.25;2.60;;;25.10;68.20;;;;;;7404634;19;20007;-74
2023/05/04 15:09:25;;;;;;;4.82;2.13;;;25.00;66.60;;;;;;7386442;19;20075;-76
2023/05/04 15:11:54;;;;;;;3.28;2.33;;;25.00;67.30;;;;;;7383807;19;20015;-72
2023/05/04 15:14:24;;;;;;;6.15;2.05;;;25.30;66.10;;;;;;7383527;19;20021;-72
2023/05/04 15:16:52;;;;;;;5.03;2.30;;;25.40;66.40;;;;;;7382129;19;20003;-74
2023/05/04 15:19:21;;;;;;;4.95;2.33;;;25.30;66.60;;;;;;7385266;19;20011;-73
2023/05/04 15:21:51;;;;;;;5.70;2.30;;;25.40;66.90;;;;;;7403989;19;20019;-75
2023/05/04 15:24:20;;;;;;;8.50;2.47;;;25.50;66.90;;;;;;7384871;19;20006;-77
2023/05/04 15:26:51;;;;;;;5.22;2.33;;;25.50;66.60;;;;;;7381838;19;20032;-74
2023/05/04 15:29:20;;;;;;;4.68;2.20;;;25.60;66.40;;;;;;7385043;19;20013;-73
2023/05/04 15:31:48;;;;;;;3.42;2.45;;;25.70;65.70;;;;;;7386799;19;20256;-72
2023/05/04 15:34:17;;;;;;;3.80;2.22;;;25.60;65.30;;;;;;7381292;19;20361;-73
2023/05/04 15:36:46;;;;;;;3.53;2.13;;;25.60;65.40;;;;;;7402854;19;20010;-74
2023/05/04 15:39:15;;;;;;;4.43;2.22;;;25.50;65.60;;;;;;7380785;19;20296;-74
2023/05/04 15:41:43;;;;;;;2.85;2.42;;;25.40;65.80;;;;;;7382053;19;20003;-75
2023/05/04 15:44:15;;;;;;;3.05;2.08;;;25.50;65.90;;;;;;7382139;19;20030;-74
2023/05/04 15:46:45;;;;;;;3.67;1.90;;;25.70;66.10;;;;;;7383185;19;20261;-75
2023/05/04 15:49:13;;;;;;;4.00;2.30;;;25.70;65.90;;;;;;7384349;19;20011;-74
2023/05/04 15:51:42;;;;;;;2.83;2.20;;;26.10;66.40;;;;;;7404622;19;20024;-76
2023/05/04 15:54:11;;;;;;;3.17;2.33;;;26.50;64.40;;;;;;7380977;19;20003;-75
2023/05/04 15:56:39;;;;;;;3.20;2.38;;;26.80;63.40;;;;;;7380846;19;20264;-75
2023/05/04 15:59:08;;;;;;;6.93;2.28;;;27.20;63.20;;;;;;7380398;19;20006;-75
2023/05/04 16:01:40;;;;;;;4.20;2.20;;;27.70;62.20;;;;;;7381042;19;20087;-76
2023/05/04 16:04:10;;;;;;;8.90;2.55;;;28.50;60.20;;;;;;7382837;19;20017;-78
2023/05/04 16:06:39;;;;;;;3.08;2.25;;;29.30;59.30;;;;;;7402057;19;20039;-74
2023/05/04 16:09:08;;;;;;;20.40;13.45;;;30.10;57.90;;;;;;7380386;19;20260;-76
2023/05/04 16:11:38;;;;;;;30.35;21.33;;;31.00;56.50;;;;;;7381078;19;20007;-76
2023/05/04 16:14:06;;;;;;;3.42;2.55;;;31.80;54.80;;;;;;7380739;19;20002;-72
2023/05/04 16:16:35;;;;;;;2.78;1.70;;;32.40;52.40;;;;;;7380730;19;20023;-73
2023/05/04 16:19:06;;;;;;;6.00;1.90;;;32.60;51.60;;;;;;7402377;19;20023;-73
2023/05/04 16:21:35;;;;;;;2.75;2.00;;;32.80;51.80;;;;;;7382314;19;20007;-73
2023/05/04 16:24:06;;;;;;;2.38;1.80;;;33.40;51.50;;;;;;7379080;19;20003;-75
2023/05/04 16:26:35;;;;;;;;;;;33.90;50.40;;;;;;7380711;19;20009;-74
2023/05/04 16:29:06;;;;;;;2.70;1.70;;;33.90;49.20;;;;;;7380738;19;19911;-79
2023/05/04 16:31:35;;;;;;;5.47;2.50;;;34.10;49.30;;;;;;7380672;19;20007;-76
2023/05/04 16:34:06;;;;;;;6.72;1.70;;;34.40;49.20;;;;;;7406383;19;20030;-79
2023/05/04 16:36:35;;;;;;;7.72;4.85;;;34.50;48.50;;;;;;7377985;19;20070;-74
2023/05/04 16:39:28;;;;;;;5.90;2.10;;;33.40;49.40;;;;;;7384858;19;20007;-82
2023/05/04 16:41:57;;;;;;;1.95;1.65;;;31.70;51.60;;;;;;7385440;19;20011;-79
2023/05/04 16:44:26;;;;;;;3.28;1.75;;;30.70;53.40;;;;;;7383162;19;20014;-76
2023/05/04 16:46:55;;;;;;;2.75;1.45;;;31.10;54.00;;;;;;7379393;19;20277;-77
2023/05/04 16:49:29;;;;;;;2.97;1.40;;;31.60;52.20;;;;;;7381006;19;20007;-77
2023/05/04 16:51:58;;;;;;;2.15;1.40;;;32.40;51.00;;;;;;7399423;19;20475;-76
2023/05/04 16:54:26;;;;;;;7.47;1.40;;;32.40;49.90;;;;;;7379851;19;20362;-76
2023/05/04 16:56:55;;;;;;;2.15;1.45;;;32.00;51.20;;;;;;7380645;19;20002;-76
2023/05/04 16:59:24;;;;;;;2.03;1.40;;;31.60;52.10;;;;;;7381114;19;20019;-76
2023/05/04 17:01:52;;;;;;;8.32;1.90;;;30.90;52.20;;;;;;7379784;19;20006;-76
2023/05/04 17:04:23;;;;;;;4.35;1.48;;;29.90;53.80;;;;;;7378199;19;20007;-75
2023/05/04 17:06:54;;;;;;;3.27;1.60;;;29.20;55.20;;;;;;7400557;19;20011;-76
2023/05/04 17:09:23;;;;;;;3.25;1.30;;;28.50;56.20;;;;;;7378454;19;20007;-76
2023/05/04 17:11:51;;;;;;;2.13;1.13;;;28.70;56.20;;;;;;7385049;19;20028;-76
2023/05/04 17:14:20;;;;;;;2.95;1.00;;;28.80;55.90;;;;;;7386784;19;19999;-75
2023/05/04 17:16:49;;;;;;;6.43;1.17;;;29.20;55.70;;;;;;7385003;19;20007;-76
2023/05/04 17:19:18;;;;;;;1.98;1.08;;;30.40;53.40;;;;;;7387209;19;20007;-77
2023/05/04 17:21:47;;;;;;;3.45;1.10;;;31.30;51.90;;;;;;7408903;19;20015;-77
2023/05/04 17:24:18;;;;;;;3.65;0.90;;;31.90;51.00;;;;;;7385458;19;20019;-77
2023/05/04 17:26:47;;;;;;;2.92;0.80;;;32.50;50.00;;;;;;7386304;19;20200;-76
2023/05/04 17:29:16;;;;;;;1.35;0.88;;;31.70;50.10;;;;;;7387709;19;20006;-76
2023/05/04 17:31:44;;;;;;;1.35;0.80;;;30.90;51.40;;;;;;7384864;19;20007;-77
2023/05/04 17:34:13;;;;;;;4.30;1.17;;;29.80;52.70;;;;;;7386299;19;20010;-77
2023/05/04 17:36:42;;;;;;;3.97;1.00;;;28.90;54.20;;;;;;7406123;19;20011;-77
2023/05/04 17:39:18;;;;;;;1.48;1.13;;;28.20;55.60;;;;;;7389114;19;20047;-74
2023/05/04 17:44:46;;;;;;;15.55;8.63;;;27.40;57.30;;;;;;7388607;19;20023;-81
2023/05/04 17:47:55;;;;;;;6.65;4.35;;;26.90;58.00;;;;;;7388790;19;20031;-85
2023/05/04 17:50:59;;;;;;;6.13;1.00;;;26.50;59.00;;;;;;7414183;19;20014;-89
2023/05/04 17:56:39;;;;;;;65.70;42.15;;;28.40;57.10;;;;;;7409104;19;19975;-77
2023/05/04 17:59:10;;;;;;;94.10;61.72;;;29.80;55.30;;;;;;7387070;19;20050;-80
2023/05/04 18:01:39;;;;;;;60.85;42.15;;;30.50;53.60;;;;;;7386970;19;20155;-78
2023/05/04 18:04:08;;;;;;;5.85;3.75;;;31.00;52.90;;;;;;7398697;19;20039;-82
2023/05/04 18:06:37;;;;;;;2.83;1.75;;;31.40;52.00;;;;;;7410079;19;20010;-82
2023/05/04 18:09:13;;;;;;;2.15;1.00;;;31.40;51.70;;;;;;7388318;19;20059;-84
2023/05/04 18:11:41;;;;;;;1.23;0.88;;;31.10;51.70;;;;;;7388035;19;20015;-79
2023/05/04 18:14:14;;;;;;;6.45;1.10;;;30.80;52.70;;;;;;7386753;19;20003;-81
2023/05/04 18:16:43;;;;;;;2.60;0.82;;;30.80;52.90;;;;;;7385287;19;20035;-82
2023/05/04 18:19:23;;;;;;;;;;;;;;;;;;;;;
2023/05/04 18:28:24;;;;;;;22.70;15.85;;;31.20;50.80;;;;;;7392912;19;20034;-85
2023/05/04 18:31:06;;;;;;;48.58;34.50;;;31.00;51.50;;;;;;7415364;19;20013;-82
2023/05/04 18:33:53;;;;;;;86.78;59.65;;;30.60;51.70;;;;;;7394709;19;20331;-81
2023/05/04 18:36:58;;;;;;;10.85;6.18;;;29.90;52.20;;;;;;7392159;19;20019;-82
2023/05/04 18:39:27;;;;;;;3.80;1.30;;;29.20;53.20;;;;;;7391171;19;20003;-82
2023/05/04 18:51:23;;;;;;;3.90;0.52;;;27.20;56.60;;;;;;7392738;19;20010;-83
2023/05/04 18:57:13;;;;;;;25.65;15.77;;;26.20;58.30;;;;;;7391388;19;20029;-83
2023/05/04 19:02:52;;;;;;;6.10;0.82;;;25.50;59.60;;;;;;7390623;19;20014;-84
2023/05/04 19:05:39;;;;;;;3.08;0.65;;;25.20;60.40;;;;;;7412966;19;20007;-85
2023/05/04 19:08:10;;;;;;;5.05;1.08;;;24.90;61.20;;;;;;7390945;19;20006;-82
2023/05/04 19:11:02;;;;;;;3.97;0.85;;;24.80;61.90;;;;;;7391184;19;20007;-84
2023/05/04 19:13:35;;;;;;;6.28;0.65;;;24.70;62.20;;;;;;7391699;19;20046;-82
2023/05/04 19:16:05;;;;;;;3.63;0.70;;;24.60;62.30;;;;;;7406780;19;20007;-78
2023/05/04 19:18:35;;;;;;;36.15;24.95;;;24.60;62.60;;;;;;7387734;19;20006;-75
2023/05/04 19:21:06;;;;;;;29.70;17.65;;;24.50;62.60;;;;;;7383489;19;20027;-79
2023/05/04 19:23:38;;;;;;;27.67;17.80;;;24.30;62.70;;;;;;7388131;19;20354;-81
2023/05/04 19:26:06;;;;;;;11.70;6.05;;;24.30;63.00;;;;;;7388108;19;20003;-77
2023/05/04 19:28:35;;;;;;;4.38;1.77;;;24.10;63.40;;;;;;7387078;19;20003;-77
2023/05/04 19:31:04;;;;;;;13.82;7.32;;;24.10;63.30;;;;;;7405627;19;20023;-79
2023/05/04 19:33:33;;;;;;;3.05;1.45;;;24.10;63.40;;;;;;7386554;19;20010;-81
2023/05/04 19:36:04;;;;;;;1.63;0.95;;;24.00;63.70;;;;;;7383547;19;20010;-78
2023/05/04 19:38:36;;;;;;;4.90;0.70;;;24.00;64.10;;;;;;7385205;19;20015;-79
2023/05/04 19:41:07;;;;;;;6.68;1.20;;;24.00;64.40;;;;;;7386632;19;20031;-79
2023/05/04 19:43:37;;;;;;;;;;;23.90;64.80;;;;;;7385851;19;20010;-75
2023/05/04 19:46:06;;;;;;;2.83;0.70;;;24.00;65.20;;;;;;7406888;19;19931;-77
2023/05/04 19:48:35;;;;;;;15.55;9.70;;;23.80;65.00;;;;;;7382812;19;20006;-77
2023/05/04 19:51:04;;;;;;;34.22;20.02;;;23.80;65.20;;;;;;7382064;19;20031;-76
2023/05/04 19:53:33;;;;;;;43.33;25.75;;;23.70;65.40;;;;;;7382513;19;20044;-77
2023/05/04 19:56:01;;;;;;;27.42;17.80;;;23.70;66.20;;;;;;7381460;19;20006;-76
2023/05/04 19:58:35;;;;;;;50.95;30.70;;;23.60;65.90;;;;;;7381587;19;20277;-79
2023/05/04 20:01:03;;;;;;;13.07;6.95;;;23.60;66.80;;;;;;7405509;19;20025;-78
2023/05/04 20:03:32;;;;;;;8.15;4.78;;;23.60;66.50;;;;;;7386973;19;20004;-78
2023/05/04 20:06:02;;;;;;;2.85;1.20;;;23.60;67.40;;;;;;7386550;19;20002;-79
2023/05/04 20:08:31;;;;;;;1.83;0.85;;;23.50;66.50;;;;;;7385466;19;20021;-78
2023/05/04 20:11:00;;;;;;;2.63;0.60;;;23.50;67.00;;;;;;7387295;19;20012;-78
2023/05/04 20:13:33;;;;;;;8.18;1.10;;;23.40;67.20;;;;;;7387739;19;20039;-78
2023/05/04 20:16:03;;;;;;;55.40;30.55;;;23.30;67.70;;;;;;7404704;19;20014;-76
2023/05/04 20:18:31;;;;;;;19.65;11.38;;;23.30;67.60;;;;;;7385923;19;19999;-78
2023/05/04 20:21:00;;;;;;;38.90;23.63;;;23.40;67.90;;;;;;7386424;19;20369;-77
2023/05/04 20:23:29;;;;;;;42.80;25.13;;;23.30;68.10;;;;;;7392129;19;20041;-79
2023/05/04 20:25:59;;;;;;;8.10;3.97;;;23.30;68.60;;;;;;7394176;19;20047;-78
2023/05/04 20:28:28;;;;;;;3.33;1.85;;;23.20;68.90;;;;;;7389077;19;20013;-80
2023/05/04 20:30:59;;;;;;;2.65;1.10;;;23.10;69.10;;;;;;7406046;19;20019;-81
2023/05/04 20:33:28;;;;;;;10.35;2.80;;;23.10;69.50;;;;;;7388147;19;20247;-79
2023/05/04 20:35:57;;;;;;;5.90;4.38;;;23.00;69.80;;;;;;7385421;19;20025;-78
2023/05/04 20:38:31;;;;;;;8.95;1.48;;;22.90;70.10;;;;;;7383220;19;20238;-80
2023/05/04 20:41:11;;;;;;;7.28;2.17;;;22.90;69.90;;;;;;7384751;19;20031;-81
2023/05/04 20:43:40;;;;;;;12.02;5.47;;;22.80;70.00;;;;;;7384559;19;20010;-79
2023/05/04 20:46:11;;;;;;;98.97;67.93;;;22.80;70.40;;;;;;7385740;19;20014;-79
2023/05/04 20:48:41;;;;;;;18.38;9.30;;;22.70;70.80;;;;;;7410520;19;20029;-79
2023/05/04 20:51:09;;;;;;;8.70;3.80;;;22.60;70.90;;;;;;7389375;19;20042;-78
2023/05/04 20:53:38;;;;;;;8.00;1.77;;;22.60;71.00;;;;;;7388609;19;20002;-78
2023/05/04 20:56:08;;;;;;;5.25;2.30;;;22.50;71.40;;;;;;7387373;19;20011;-78
2023/05/04 20:58:39;;;;;;;6.70;2.78;;;22.40;71.70;;;;;;7389304;19;20011;-80
2023/05/04 21:01:11;;;;;;;3.65;2.33;;;22.30;72.10;;;;;;7388218;19;20027;-77
2023/05/04 21:03:39;;;;;;;;;;;22.20;72.40;;;;;;7411816;19;20011;-78
2023/05/04 21:06:08;;;;;;;5.35;2.13;;;22.20;72.80;;;;;;7390128;19;19903;-78
2023/05/04 21:08:37;;;;;;;3.92;1.83;;;22.20;72.60;;;;;;7390100;19;20002;-78
2023/05/04 21:11:06;;;;;;;6.00;1.98;;;22.10;72.80;;;;;;7390828;19;20003;-79
2023/05/04 21:13:34;;;;;;;5.72;3.47;;;22.10;73.00;;;;;;7392322;19;20010;-79
2023/05/04 21:16:03;;;;;;;4.53;1.88;;;22.10;73.30;;;;;;7409180;19;20007;-81
2023/05/04 21:18:34;;;;;;;2.67;1.40;;;22.00;73.30;;;;;;7388389;19;20011;-75
2023/05/04 21:21:04;;;;;;;;;;;22.00;73.50;;;;;;7388255;19;20336;-76
2023/05/04 21:23:34;;;;;;;14.95;8.70;;;22.00;73.70;;;;;;7388167;19;19903;-79
2023/05/04 21:26:03;;;;;;;8.20;3.72;;;21.90;73.80;;;;;;7386630;19;20003;-76
2023/05/04 21:28:33;;;;;;;8.65;5.35;;;21.90;73.80;;;;;;7394693;19;20011;-79
2023/05/04 21:31:02;;;;;;;3.28;1.80;;;21.80;73.90;;;;;;7409734;19;20058;-79
2023/05/04 21:33:30;;;;;;;4.60;1.23;;;21.80;73.90;;;;;;7389377;19;20014;-78
2023/05/04 21:36:12;;;;;;;5.75;2.45;;;21.80;74.10;;;;;;7390500;19;20398;-79
2023/05/04 21:38:40;;;;;;;11.23;3.70;;;21.80;74.40;;;;;;7389397;19;20007;-76
2023/05/04 21:41:15;;;;;;;5.72;1.42;;;21.70;74.70;;;;;;7389224;19;20007;-79
2023/05/04 21:43:46;;;;;;;3.65;1.00;;;21.60;75.80;;;;;;7385309;19;20010;-78
2023/05/04 21:46:15;;;;;;;4.47;1.17;;;21.60;75.00;;;;;;7385051;19;20301;-77
2023/05/04 21:48:44;;;;;;;1.30;0.82;;;21.60;75.10;;;;;;7408446;19;20349;-77
2023/05/04 21:51:15;;;;;;;3.88;1.20;;;21.60;75.00;;;;;;7387309;19;20007;-78
2023/05/04 21:53:44;;;;;;;6.82;1.45;;;21.50;74.80;;;;;;7386916;19;20024;-78
2023/05/04 21:56:16;;;;;;;2.40;0.90;;;21.50;74.90;;;;;;7385502;19;20016;-78
2023/05/04 21:58:45;;;;;;;3.95;1.13;;;21.50;75.00;;;;;;7386622;19;20017;-77
2023/05/04 22:01:20;;;;;;;19.50;3.92;;;21.40;75.00;;;;;;7388673;19;20241;-76
2023/05/04 22:03:49;;;;;;;7.82;2.40;;;21.40;75.20;;;;;;7407953;19;20361;-75
2023/05/04 22:06:20;;;;;;;4.93;1.30;;;21.40;75.10;;;;;;7385692;19;20007;-75
2023/05/04 22:08:49;;;;;;;5.63;1.63;;;21.40;75.20;;;;;;7385984;19;20003;-77
2023/05/04 22:11:19;;;;;;;6.03;1.98;;;21.40;75.20;;;;;;7386990;19;20007;-77
2023/05/04 22:13:48;;;;;;;22.42;9.57;;;21.40;75.20;;;;;;7388482;19;20018;-79
2023/05/04 22:16:18;;;;;;;32.53;16.75;;;21.30;75.20;;;;;;7387058;19;20017;-77
2023/05/04 22:18:48;;;;;;;14.32;6.30;;;21.30;75.20;;;;;;7413033;19;20002;-77
2023/05/04 22:21:19;;;;;;;9.68;6.18;;;21.20;75.40;;;;;;7387576;19;20361;-77
2023/05/04 22:23:48;;;;;;;;;;;21.20;75.40;;;;;;7391086;19;20019;-80
2023/05/04 22:26:16;;;;;;;2.85;1.50;;;21.20;75.50;;;;;;7392589;19;19927;-78
2023/05/04 22:28:45;;;;;;;12.68;5.18;;;21.10;75.60;;;;;;7386846;19;20023;-76
2023/05/04 22:31:14;;;;;;;13.50;7.20;;;21.10;76.00;;;;;;7388658;19;20007;-78
2023/05/04 22:33:45;;;;;;;12.80;5.95;;;21.00;75.90;;;;;;7410431;19;20002;-74
2023/05/04 22:36:20;;;;;;;7.60;2.58;;;21.00;75.90;;;;;;7386264;19;20002;-76
2023/05/04 22:38:51;;;;;;;2.63;1.23;;;21.00;76.10;;;;;;7385238;19;20058;-75
2023/05/04 22:41:20;;;;;;;6.25;1.13;;;21.00;75.90;;;;;;7385312;19;20252;-75
2023/05/04 22:43:49;;;;;;;9.45;1.50;;;21.00;76.00;;;;;;7384968;19;20072;-75
2023/05/04 22:46:19;;;;;;;5.32;1.55;;;20.90;76.10;;;;;;7386884;19;20014;-76
2023/05/04 22:48:48;;;;;;;4.03;1.67;;;20.90;76.20;;;;;;7407140;19;20007;-75
2023/05/04 22:51:19;;;;;;;3.25;1.63;;;20.90;76.30;;;;;;7384753;19;20070;-75
2023/05/04 22:53:49;;;;;;;4.50;1.40;;;20.90;76.00;;;;;;7385920;19;20287;-75
2023/05/04 22:56:18;;;;;;;4.65;2.35;;;20.90;76.10;;;;;;7384290;19;20003;-76
2023/05/04 22:58:47;;;;;;;6.10;1.70;;;20.80;76.30;;;;;;7382811;19;20054;-75
2023/05/04 23:01:16;;;;;;;4.63;1.58;;;20.80;76.50;;;;;;7382314;19;20010;-75
2023/05/04 23:03:45;;;;;;;4.95;1.60;;;20.80;76.60;;;;;;7404987;19;20006;-75
2023/05/04 23:06:14;;;;;;;3.42;1.63;;;20.70;76.60;;;;;;7384178;19;20066;-77
2023/05/04 23:08:45;;;;;;;13.45;6.82;;;20.70;76.60;;;;;;7382960;19;20066;-76
2023/05/04 23:11:14;;;;;;;;;;;20.70;76.40;;;;;;7385853;19;19999;-77
2023/05/04 23:13:43;;;;;;;8.00;3.10;;;20.70;76.50;;;;;;7382834;19;19927;-76
2023/05/04 23:16:12;;;;;;;5.43;1.80;;;20.70;76.40;;;;;;7382265;19;20010;-76
2023/05/04 23:18:40;;;;;;;5.10;1.42;;;20.60;76.50;;;;;;7402688;19;20011;-76
2023/05/04 23:21:09;;;;;;;5.65;1.45;;;20.50;76.70;;;;;;7383558;19;20020;-76
2023/05/04 23:23:38;;;;;;;2.83;1.00;;;20.50;76.70;;;;;;7383357;19;20044;-76
2023/05/04 23:26:09;;;;;;;20.92;9.75;;;20.50;76.90;;;;;;7384472;19;20058;-75
2023/05/04 23:28:38;;;;;;;10.60;5.20;;;20.50;76.80;;;;;;7383570;19;20015;-76
2023/05/04 23:31:06;;;;;;;3.05;1.17;;;20.50;76.80;;;;;;7404130;19;20023;-76
2023/05/04 23:33:35;;;;;;;7.50;1.45;;;20.50;76.70;;;;;;7404220;19;20028;-76
2023/05/04 23:36:04;;;;;;;3.65;1.20;;;20.50;76.60;;;;;;7382030;19;20023;-76
2023/05/04 23:38:33;;;;;;;3.00;1.20;;;20.50;76.50;;;;;;7383314;19;20005;-76
2023/05/04 23:41:03;;;;;;;2.10;1.30;;;20.40;76.70;;;;;;7382401;19;20057;-76
2023/05/04 23:43:35;;;;;;;6.88;1.58;;;20.40;76.80;;;;;;7383632;19;20395;-75
2023/05/04 23:46:04;;;;;;;;;;;20.40;76.90;;;;;;7404976;19;20015;-75
2023/05/04 23:48:34;;;;;;;5.97;1.48;;;20.40;77.20;;;;;;7381852;19;20240;-74
2023/05/04 23:51:05;;;;;;;4.40;1.73;;;20.30;77.10;;;;;;7381610;19;20003;-75
2023/05/04 23:53:35;;;;;;;8.35;1.88;;;20.20;77.30;;;;;;7382364;19;20018;-74
2023/05/04 23:56:06;;;;;;;3.90;1.63;;;20.10;77.50;;;;;;7381764;19;20007;-75
2023/05/04 23:58:37;;;;;;;3.80;1.40;;;20.10;77.80;;;;;;7381490;19;20007;-75
